Time;durP1;ratioP1;P1;durP2;ratioP2;P2;SDS_P1;SDS_P2;PMS_P1;PMS_P2;Temp;Humidity;BMP_temperature;BMP_pressure;BME280_temperature;BME280_humidity;BME280_pressure;Samples;Min_cycle;Max_cycle;Signal;HPM_P1;HPM_P2
2020/12/24 06:00:33;;;;;;;10.20;7.47;;;;;;;-2.16;88.74;100496.08;1695613;83;21201;-43
2020/12/24 06:03:13;;;;;;;8.45;6.15;;;;;;;-2.15;88.91;100495.27;1717040;82;21180;-38
2020/12/24 06:05:58;;;;;;;10.60;7.15;;;;;;;-2.12;89.07;100489.84;1708896;82;21358;-40
2020/12/24 06:08:31;;;;;;;10.15;5.83;;;;;;;-2.10;88.94;100480.54;1706564;82;21600;-39
2020/12/24 06:11:06;;;;;;;11.55;8.65;;;;;;;-2.11;89.05;100484.79;1707467;82;21174;-39
2020/12/24 06:13:42;;;;;;;11.70;8.00;;;;;;;-2.07;89.17;100489.70;1713401;82;21171;-45
2020/12/24 06:16:13;;;;;;;11.93;8.08;;;;;;;-2.05;89.10;100484.23;1706814;82;21181;-44
2020/12/24 06:18:46;;;;;;;11.28;7.47;;;;;;;-2.06;89.18;100485.92;1708176;82;21336;-43
2020/12/24 06:21:22;;;;;;;17.82;8.18;;;;;;;-2.04;89.34;100488.16;1706394;82;21240;-39
2020/12/24 06:23:59;;;;;;;10.98;7.17;;;;;;;-2.01;89.38;100496.42;1653147;85;21248;-45
2020/12/24 06:26:30;;;;;;;11.68;8.30;;;;;;;-1.96;89.48;100498.44;1705181;82;21728;-46
2020/12/24 06:29:01;;;;;;;11.93;8.95;;;;;;;-1.92;89.45;100498.17;1703073;82;21202;-45
2020/12/24 06:31:30;;;;;;;9.97;6.57;;;;;;;-1.88;89.51;100497.55;1705317;82;22296;-39
2020/12/24 06:34:00;;;;;;;11.12;7.65;;;;;;;-1.85;89.27;100489.16;1705168;82;21481;-45
2020/12/24 06:36:33;;;;;;;11.10;7.60;;;;;;;-1.87;89.14;100496.34;1704523;82;21144;-45
2020/12/24 06:39:06;;;;;;;10.10;7.83;;;;;;;-1.84;89.24;100494.76;1709212;82;21674;-45
2020/12/24 06:41:40;;;;;;;11.12;7.95;;;;;;;-1.82;89.18;100496.59;1708549;82;21184;-44
2020/12/24 06:44:15;;;;;;;12.53;8.98;;;;;;;-1.79;89.14;100498.45;1657480;84;21145;-39
2020/12/24 06:46:59;;;;;;;10.63;8.28;;;;;;;-1.77;89.21;100491.30;1707634;82;21199;-39
2020/12/24 06:49:31;;;;;;;15.13;8.68;;;;;;;-1.73;89.13;100473.11;1706015;82;21763;-39
2020/12/24 06:51:59;;;;;;;11.40;8.30;;;;;;;-1.74;88.96;100480.30;1708802;82;21552;-39
2020/12/24 06:54:28;;;;;;;10.10;6.50;;;;;;;-1.70;89.14;100470.69;1708899;82;21176;-39
2020/12/24 06:57:24;;;;;;;12.05;8.08;;;;;;;-1.67;89.11;100461.89;1703869;82;21159;-41
2020/12/24 07:00:23;;;;;;;12.53;8.78;;;;;;;-1.67;88.87;100478.16;1707196;82;21688;-45
2020/12/24 07:02:54;;;;;;;10.40;7.60;;;;;;;-1.66;89.06;100476.47;1691652;83;21999;-45
2020/12/24 07:05:44;;;;;;;11.65;7.92;;;;;;;-1.60;89.11;100470.37;1703549;82;21705;-45
2020/12/24 07:08:35;;;;;;;11.65;7.92;;;;;;;-1.56;88.98;100477.84;1699910;82;22410;-39
2020/12/24 07:11:04;;;;;;;11.93;8.70;;;;;;;-1.56;88.92;100481.28;1704798;82;21552;-46
2020/12/24 07:13:39;;;;;;;12.00;8.93;;;;;;;-1.53;88.79;100481.42;1701287;82;21136;-39
2020/12/24 07:16:09;;;;;;;9.45;7.00;;;;;;;-1.50;88.78;100479.42;1701407;82;21160;-46
2020/12/24 07:18:40;;;;;;;14.93;9.23;;;;;;;-1.49;88.90;100479.50;1701237;82;21172;-39
2020/12/24 07:21:14;;;;;;;14.35;9.25;;;;;;;-1.45;88.87;100474.09;1706438;82;21627;-41
2020/12/24 07:23:43;;;;;;;14.07;9.83;;;;;;;-1.41;88.94;100474.34;1658000;84;21542;-45
2020/12/24 07:26:11;;;;;;;13.98;9.33;;;;;;;-1.36;88.75;100479.30;1591526;84;21168;-39
2020/12/24 07:28:40;;;;;;;14.28;11.03;;;;;;;-1.34;88.54;100489.64;1651042;85;21226;-40
2020/12/24 07:31:09;;;;;;;18.35;11.80;;;;;;;-1.31;88.57;100486.36;1648756;85;21195;-38
2020/12/24 07:33:45;;;;;;;14.68;9.40;;;;;;;-1.31;88.50;100483.39;1650738;85;21381;-38
2020/12/24 07:36:16;;;;;;;14.87;10.35;;;;;;;-1.31;88.43;100480.83;1650890;86;21165;-45
2020/12/24 07:38:46;;;;;;;;;;;;;;;-1.30;88.62;100480.42;1661175;85;21217;-44
2020/12/24 07:41:22;;;;;;;10.20;8.13;;;;;;;-1.27;88.58;100476.74;1661119;85;20148;-39
2020/12/24 07:43:51;;;;;;;10.72;8.20;;;;;;;-1.24;88.58;100481.61;1640879;85;21165;-38
2020/12/24 07:46:21;;;;;;;15.30;9.93;;;;;;;-1.23;88.51;100474.78;1705804;82;21161;-44
2020/12/24 07:48:49;;;;;;;16.80;10.32;;;;;;;-1.21;88.49;100481.77;1702998;82;21188;-44
2020/12/24 07:51:20;;;;;;;13.58;9.58;;;;;;;-1.20;88.39;100474.55;1647531;85;21175;-44
2020/12/24 07:53:56;;;;;;;12.25;8.03;;;;;;;-1.20;88.33;100475.83;1669105;83;21383;-39
2020/12/24 07:56:24;;;;;;;13.22;9.50;;;;;;;-1.17;88.31;100475.97;1649589;85;21198;-39
2020/12/24 07:59:00;;;;;;;14.60;9.88;;;;;;;-1.16;88.28;100462.72;1695407;82;21183;-45
2020/12/24 08:01:31;;;;;;;13.10;10.13;;;;;;;-1.16;88.28;100469.14;1701686;82;21164;-39
2020/12/24 08:04:02;;;;;;;14.25;9.93;;;;;;;-1.11;88.39;100468.97;1702743;82;21751;-45
2020/12/24 08:06:37;;;;;;;14.70;9.03;;;;;;;-1.03;88.44;100461.25;1709548;82;21628;-39
2020/12/24 08:09:16;;;;;;;13.98;9.18;;;;;;;-0.98;88.17;100464.93;1706733;82;21174;-45
2020/12/24 08:11:58;;;;;;;13.15;9.58;;;;;;;-0.95;88.07;100448.77;1651222;85;21194;-45
2020/12/24 08:14:30;;;;;;;17.12;10.95;;;;;;;-0.91;88.06;100454.14;1706275;82;21182;-45
2020/12/24 08:17:27;;;;;;;14.20;9.83;;;;;;;-0.91;87.76;100461.84;1706649;82;21286;-39
2020/12/24 08:20:04;;;;;;;14.35;10.35;;;;;;;-0.91;87.81;100441.70;1710364;82;21581;-38
2020/12/24 08:22:52;;;;;;;12.18;9.28;;;;;;;-0.91;87.82;100448.13;1709192;82;21167;-45
2020/12/24 08:25:25;;;;;;;11.50;9.03;;;;;;;-0.92;87.84;100434.41;1705467;82;21211;-44
2020/12/24 08:27:58;;;;;;;13.22;8.83;;;;;;;-0.94;87.78;100433.83;1680860;82;21321;-46
2020/12/24 08:30:32;;;;;;;12.85;9.25;;;;;;;-0.96;87.87;100422.20;1704221;82;21161;-38
2020/12/24 08:33:04;;;;;;;12.23;9.18;;;;;;;-0.97;88.09;100426.87;1708188;82;21245;-39
2020/12/24 08:35:39;;;;;;;11.97;9.03;;;;;;;-0.92;88.30;100421.97;1689262;82;21418;-44
2020/12/24 08:38:16;;;;;;;13.25;10.35;;;;;;;-0.88;88.26;100427.30;1709131;82;21510;-38
2020/12/24 08:40:44;;;;;;;12.70;9.00;;;;;;;-0.83;88.18;100424.55;1705211;82;21140;-38
2020/12/24 08:43:15;;;;;;;12.28;8.53;;;;;;;-0.82;88.02;100416.43;1710590;82;21196;-44
2020/12/24 08:45:53;;;;;;;13.50;9.28;;;;;;;-0.82;88.14;100431.44;1706844;82;21151;-45
2020/12/24 08:48:31;;;;;;;13.25;9.53;;;;;;;-0.78;88.08;100426.46;1668399;82;21233;-45
2020/12/24 08:51:14;;;;;;;13.32;8.93;;;;;;;-0.75;88.22;100431.73;1708018;82;21695;-39
2020/12/24 08:53:45;;;;;;;14.05;9.03;;;;;;;-0.72;88.16;100430.20;1709255;82;21246;-45
2020/12/24 08:56:19;;;;;;;12.18;8.63;;;;;;;-0.72;87.90;100430.61;1708152;82;21754;-39
2020/12/24 08:58:53;;;;;;;12.45;8.33;;;;;;;-0.73;87.90;100427.16;1707995;82;21318;-45
2020/12/24 09:01:28;;;;;;;12.85;8.40;;;;;;;-0.74;88.08;100418.98;1708236;82;21221;-39
2020/12/24 09:04:11;;;;;;;11.45;8.70;;;;;;;-0.70;88.17;100417.41;1654794;85;21651;-40
2020/12/24 09:06:44;;;;;;;12.50;8.80;;;;;;;-0.68;88.14;100416.69;1695901;82;21217;-45
2020/12/24 09:09:23;;;;;;;12.30;9.25;;;;;;;-0.65;88.17;100412.96;1705446;82;21241;-41
2020/12/24 09:11:54;;;;;;;13.95;8.80;;;;;;;-0.63;88.10;100410.48;1707161;82;21303;-40
2020/12/24 09:14:23;;;;;;;11.50;7.87;;;;;;;-0.65;88.04;100412.09;1705174;82;21695;-46
2020/12/24 09:16:58;;;;;;;17.30;11.05;;;;;;;-0.67;88.11;100412.02;1710292;82;21992;-44
2020/12/24 09:19:26;;;;;;;17.55;9.90;;;;;;;-0.69;88.29;100412.37;1710555;82;21191;-43
2020/12/24 09:21:58;;;;;;;15.88;10.78;;;;;;;-0.66;88.47;100420.61;1704859;82;21168;-39
2020/12/24 09:24:28;;;;;;;18.73;11.08;;;;;;;-0.65;88.52;100412.96;1704887;82;21164;-45
2020/12/24 09:26:58;;;;;;;16.32;11.05;;;;;;;-0.65;88.39;100401.40;1708576;82;21167;-45
2020/12/24 09:29:27;;;;;;;16.05;9.50;;;;;;;-0.62;88.53;100419.95;1708421;82;21175;-44
2020/12/24 09:31:58;;;;;;;15.28;11.15;;;;;;;-0.62;88.37;100416.98;1710174;82;21530;-38
2020/12/24 09:34:27;;;;;;;19.80;11.70;;;;;;;-0.64;88.40;100407.41;1709516;82;22058;-38
2020/12/24 09:36:55;;;;;;;18.35;10.78;;;;;;;-0.65;88.58;100410.39;1710352;82;21167;-40
2020/12/24 09:39:24;;;;;;;12.95;9.60;;;;;;;-0.64;88.66;100394.19;1653970;85;21188;-44
2020/12/24 09:42:02;;;;;;;14.38;9.33;;;;;;;-0.61;88.74;100392.16;1707039;82;21309;-38
2020/12/24 09:44:35;;;;;;;14.28;9.85;;;;;;;-0.60;88.66;100379.36;1711087;82;21172;-44
2020/12/24 09:47:06;;;;;;;12.40;9.58;;;;;;;-0.60;88.56;100389.64;1699514;82;21191;-39
2020/12/24 09:49:35;;;;;;;17.52;9.95;;;;;;;-0.61;88.59;100381.47;1707597;82;21192;-42
2020/12/24 09:52:04;;;;;;;15.43;10.98;;;;;;;-0.63;88.59;100376.67;1707461;82;21190;-39
2020/12/24 09:54:37;;;;;;;16.32;10.70;;;;;;;-0.61;88.83;100380.19;1709412;82;21165;-45
2020/12/24 09:57:05;;;;;;;16.00;11.28;;;;;;;-0.61;88.72;100381.47;1710739;82;21240;-39
2020/12/24 09:59:39;;;;;;;15.35;11.00;;;;;;;-0.60;88.77;100379.36;1711883;82;21317;-45
2020/12/24 10:02:07;;;;;;;17.87;10.93;;;;;;;-0.56;88.77;100373.56;1709819;82;21221;-39
2020/12/24 10:04:44;;;;;;;15.85;11.55;;;;;;;-0.50;88.70;100374.66;1781464;78;28282;-39
2020/12/24 10:07:12;;;;;;;17.40;11.10;;;;;;;-0.47;88.73;100371.80;1759072;79;21177;-39
2020/12/24 10:09:42;;;;;;;16.12;11.05;;;;;;;-0.39;88.62;100376.03;1731830;81;21671;-39
2020/12/24 10:12:10;;;;;;;15.13;10.40;;;;;;;-0.35;88.56;100373.67;1731703;81;21187;-39
2020/12/24 10:14:39;;;;;;;15.98;10.18;;;;;;;-0.33;88.27;100368.17;1733496;81;21195;-39
2020/12/24 10:17:07;;;;;;;16.23;11.55;;;;;;;-0.33;88.13;100364.73;1733790;81;21749;-44
2020/12/24 10:19:36;;;;;;;14.70;11.18;;;;;;;-0.31;88.31;100364.38;1730702;81;21179;-43
2020/12/24 10:22:04;;;;;;;18.48;10.45;;;;;;;-0.25;88.41;100353.08;1737277;81;21277;-44
2020/12/24 10:24:34;;;;;;;15.80;9.83;;;;;;;-0.19;88.16;100349.90;1733977;82;21694;-44
2020/12/24 10:27:02;;;;;;;17.62;10.88;;;;;;;-0.17;87.90;100354.72;1699814;82;21312;-38
2020/12/24 10:29:32;;;;;;;15.23;10.60;;;;;;;-0.18;87.74;100347.80;1694421;84;21525;-43
2020/12/24 10:32:00;;;;;;;20.50;12.00;;;;;;;-0.19;87.89;100346.04;1694950;84;21206;-38
2020/12/24 10:34:28;;;;;;;14.28;9.95;;;;;;;-0.14;87.98;100339.41;1695018;84;21810;-45
2020/12/24 10:37:00;;;;;;;14.40;10.40;;;;;;;-0.14;87.67;100340.69;1695086;84;21135;-44
2020/12/24 10:39:28;;;;;;;17.25;12.03;;;;;;;-0.18;87.66;100340.08;1695293;84;21731;-39
2020/12/24 10:42:05;;;;;;;22.70;14.50;;;;;;;-0.20;87.75;100336.16;1694545;84;21686;-42
2020/12/24 10:44:34;;;;;;;18.25;11.95;;;;;;;-0.19;88.01;100339.20;1694587;83;21203;-43
2020/12/24 10:47:02;;;;;;;18.62;12.47;;;;;;;-0.16;87.97;100343.62;1696841;84;21179;-45
2020/12/24 10:49:32;;;;;;;19.50;13.22;;;;;;;-0.15;87.89;100338.94;1689364;84;21629;-45
2020/12/24 10:52:05;;;;;;;16.07;11.73;;;;;;;-0.15;88.07;100337.25;1678192;82;21245;-38
2020/12/24 10:54:39;;;;;;;16.37;10.88;;;;;;;-0.14;88.07;100327.42;1706641;82;21210;-39
2020/12/24 10:57:20;;;;;;;;;;;;;;;-0.15;88.12;100329.53;1700113;83;21464;-50
2020/12/24 10:59:58;;;;;;;15.93;10.58;;;;;;;-0.16;88.21;100337.19;1699406;83;20200;-38
2020/12/24 11:02:28;;;;;;;13.83;9.70;;;;;;;-0.17;88.30;100327.31;1697577;83;21193;-40
2020/12/24 11:05:04;;;;;;;13.90;10.13;;;;;;;-0.20;88.34;100322.42;1699428;83;21517;-39
2020/12/24 11:07:39;;;;;;;15.25;10.38;;;;;;;-0.24;88.50;100320.52;1668343;84;21814;-46
2020/12/24 11:10:29;;;;;;;16.90;10.58;;;;;;;-0.23;88.83;100322.28;1698852;83;21734;-46
2020/12/24 11:13:17;;;;;;;18.87;11.08;;;;;;;-0.22;88.97;100312.08;1632903;83;21321;-46
2020/12/24 11:19:54;;;;;;;16.12;11.43;;;;;;;-0.16;89.26;100301.18;1695022;84;21514;-40
2020/12/24 11:22:30;;;;;;;17.40;11.48;;;;;;;-0.13;89.40;100293.58;1692809;84;21218;-44
2020/12/24 11:24:58;;;;;;;15.58;10.40;;;;;;;-0.13;89.34;100282.01;1695713;84;21201;-45
2020/12/24 11:27:28;;;;;;;17.62;11.28;;;;;;;-0.12;89.35;100282.47;1700793;84;21755;-43
2020/12/24 11:30:04;;;;;;;19.57;12.88;;;;;;;-0.14;89.27;100277.27;1697568;82;21637;-43
2020/12/24 11:32:33;;;;;;;17.70;11.48;;;;;;;-0.15;89.38;100282.36;1694900;84;21494;-45
2020/12/24 11:35:04;;;;;;;15.80;10.72;;;;;;;-0.18;89.37;100270.64;1697405;84;21610;-44
2020/12/24 11:37:38;;;;;;;17.85;12.53;;;;;;;-0.20;89.48;100266.73;1699056;84;21105;-43
2020/12/24 11:40:15;;;;;;;21.52;12.45;;;;;;;-0.20;89.63;100280.87;1672765;84;21201;-38
2020/12/24 11:42:48;;;;;;;19.10;12.37;;;;;;;-0.16;89.71;100284.47;1671282;84;21174;-48
2020/12/24 11:45:16;;;;;;;20.60;13.60;;;;;;;-0.16;89.60;100278.03;1694918;84;21218;-41
2020/12/24 11:47:44;;;;;;;20.45;12.93;;;;;;;-0.20;89.45;100280.87;1701167;84;21781;-48
2020/12/24 11:50:12;;;;;;;18.82;13.35;;;;;;;-0.21;89.65;100271.81;1697655;84;21646;-41
2020/12/24 11:52:41;;;;;;;22.22;12.82;;;;;;;-0.19;89.81;100268.89;1698907;84;21202;-47
2020/12/24 11:55:11;;;;;;;24.82;13.65;;;;;;;-0.19;89.85;100259.89;1703262;82;21979;-47
2020/12/24 11:57:39;;;;;;;24.00;13.80;;;;;;;-0.18;89.91;100271.92;1697621;84;21216;-46
2020/12/24 12:00:09;;;;;;;20.12;12.82;;;;;;;-0.19;89.87;100267.20;1695311;84;21360;-49
2020/12/24 12:02:44;;;;;;;21.87;13.70;;;;;;;-0.20;90.00;100264.56;1691721;84;21190;-40
2020/12/24 12:05:16;;;;;;;22.07;13.55;;;;;;;-0.21;90.17;100267.55;1623951;84;21178;-40
2020/12/24 12:07:46;;;;;;;22.27;13.68;;;;;;;-0.18;90.29;100257.78;1627913;84;21224;-41
2020/12/24 12:10:15;;;;;;;24.05;14.70;;;;;;;-0.18;90.20;100264.21;1667504;84;21166;-41
2020/12/24 12:12:44;;;;;;;22.07;13.75;;;;;;;-0.17;90.30;100266.00;1687981;83;21764;-46
2020/12/24 12:15:11;;;;;;;25.60;14.40;;;;;;;-0.14;90.31;100273.83;1653908;85;21164;-41
2020/12/24 12:17:39;;;;;;;23.73;12.93;;;;;;;-0.16;90.11;100268.63;1641013;86;21228;-40
2020/12/24 12:20:08;;;;;;;25.10;12.78;;;;;;;-0.17;90.20;100272.42;1703683;82;21654;-45
2020/12/24 12:22:36;;;;;;;24.27;14.30;;;;;;;-0.19;90.18;100260.77;1700584;83;21208;-40
2020/12/24 12:25:04;;;;;;;22.48;13.43;;;;;;;-0.17;90.34;100270.73;1702714;83;21170;-40
2020/12/24 12:27:32;;;;;;;25.20;15.43;;;;;;;-0.16;90.31;100268.63;1702257;83;21190;-46
2020/12/24 12:30:00;;;;;;;25.27;14.93;;;;;;;-0.15;90.39;100269.50;1699604;84;21674;-45
2020/12/24 12:32:30;;;;;;;26.52;15.23;;;;;;;-0.14;90.54;100264.41;1705591;82;21219;-46
2020/12/24 12:35:02;;;;;;;28.30;16.73;;;;;;;-0.12;90.62;100264.06;1702725;82;21315;-47
2020/12/24 12:40:14;;;;;;;27.30;15.30;;;;;;;-0.05;90.59;100263.53;1792372;78;23158;-46
2020/12/24 12:42:42;;;;;;;24.15;15.38;;;;;;;-0.09;90.54;100260.34;1757915;80;21206;-41
2020/12/24 12:45:13;;;;;;;22.62;13.38;;;;;;;-0.10;90.61;100250.00;1739891;81;21172;-41
2020/12/24 12:47:41;;;;;;;26.05;15.15;;;;;;;-0.08;90.74;100249.64;1734170;81;21339;-41
2020/12/24 12:50:14;;;;;;;23.18;13.22;;;;;;;-0.09;90.77;100247.89;1731381;81;21164;-46
2020/12/24 12:52:43;;;;;;;31.12;16.12;;;;;;;-0.11;90.84;100249.12;1749797;81;21175;-40
2020/12/24 12:55:12;;;;;;;25.92;14.13;;;;;;;-0.12;90.93;100253.77;1745692;81;21186;-47
2020/12/24 12:57:42;;;;;;;26.70;14.83;;;;;;;-0.13;91.03;100248.58;1733901;81;21178;-40
2020/12/24 13:00:10;;;;;;;27.85;15.68;;;;;;;-0.13;91.12;100241.73;1739054;81;21171;-47
2020/12/24 13:02:38;;;;;;;23.47;13.65;;;;;;;-0.14;91.18;100242.55;1729453;81;21170;-47
2020/12/24 13:05:06;;;;;;;23.00;15.45;;;;;;;-0.15;91.30;100227.06;1742210;81;21653;-46
2020/12/24 13:07:36;;;;;;;23.20;13.58;;;;;;;-0.14;91.38;100227.53;1732167;81;21741;-41
2020/12/24 13:10:05;;;;;;;22.60;13.95;;;;;;;-0.14;91.43;100228.81;1725871;83;21368;-39
2020/12/24 13:12:36;;;;;;;30.40;14.63;;;;;;;-0.16;91.56;100221.05;1734815;81;21210;-42
2020/12/24 13:15:16;;;;;;;24.45;14.13;;;;;;;-0.16;91.59;100235.60;1733894;81;21186;-47
2020/12/24 13:17:45;;;;;;;27.00;16.65;;;;;;;-0.18;91.60;100239.78;1708242;83;21184;-40
2020/12/24 13:20:13;;;;;;;23.67;15.32;;;;;;;-0.22;91.70;100234.94;1740225;81;21218;-47
2020/12/24 13:22:40;;;;;;;27.52;15.63;;;;;;;-0.22;91.98;100228.92;1730269;81;21164;-40
2020/12/24 13:25:15;;;;;;;21.10;14.38;;;;;;;-0.21;92.19;100229.38;1726089;81;21176;-46
2020/12/24 13:27:51;;;;;;;22.82;14.78;;;;;;;-0.19;92.36;100222.19;1742025;81;21694;-41
2020/12/24 13:30:24;;;;;;;29.42;15.75;;;;;;;-0.20;92.41;100217.87;1734962;81;21185;-40
2020/12/24 13:33:00;;;;;;;25.40;13.75;;;;;;;-0.20;92.43;100220.44;1740631;81;21366;-41
2020/12/24 13:35:39;;;;;;;32.93;16.70;;;;;;;-0.21;92.59;100225.12;1727347;82;21204;-41
2020/12/24 13:38:09;;;;;;;32.10;17.67;;;;;;;-0.22;92.66;100224.65;1739989;81;21226;-41
2020/12/24 13:40:37;;;;;;;32.00;17.77;;;;;;;-0.22;92.84;100223.36;1721165;82;21671;-46
2020/12/24 13:43:05;;;;;;;29.02;16.87;;;;;;;-0.20;92.94;100220.44;1722822;82;21132;-45
2020/12/24 13:45:33;;;;;;;28.87;15.85;;;;;;;-0.16;93.02;100225.31;1722789;82;21192;-40
2020/12/24 13:48:01;;;;;;;27.98;16.52;;;;;;;-0.16;93.07;100223.62;1723502;82;21161;-46
2020/12/24 13:50:31;;;;;;;22.60;14.63;;;;;;;-0.16;93.03;100227.89;1732208;82;21199;-46
